createdAt,value
2023-03-24T00:01:07.309Z,5.55
2023-03-24T00:03:49.601Z,3.70
2023-03-24T00:10:12.819Z,5.07
2023-03-24T00:13:18.591Z,4.57
2023-03-24T00:16:35.770Z,4.93
2023-03-24T00:19:16.269Z,6.60
2023-03-24T00:21:45.400Z,4.78
2023-03-24T00:24:19.453Z,5.23
2023-03-24T00:36:19.512Z,5.53
2023-03-24T00:39:59.581Z,4.93
2023-03-24T00:43:27.862Z,4.10
2023-03-24T00:46:45.901Z,4.30
2023-03-24T00:52:44.877Z,4.60
2023-03-24T00:55:40.375Z,5.43
2023-03-24T01:01:28.392Z,4.65
2023-03-24T01:04:18.285Z,4.55
2023-03-24T01:06:47.869Z,7.47
2023-03-24T01:12:10.378Z,4.60
2023-03-24T01:22:53.786Z,6.97
2023-03-24T01:25:52.556Z,4.60
2023-03-24T01:28:44.192Z,4.85
2023-03-24T01:31:30.664Z,4.13
2023-03-24T01:33:59.156Z,3.42
2023-03-24T01:36:38.814Z,6.72
2023-03-24T01:39:21.420Z,7.38
2023-03-24T01:42:19.666Z,10.40
2023-03-24T01:44:49.858Z,7.93
2023-03-24T01:47:35.307Z,7.40
2023-03-24T01:50:07.981Z,7.03
2023-03-24T01:52:55.757Z,4.93
2023-03-24T01:55:37.729Z,8.10
2023-03-24T01:58:14.743Z,7.68
2023-03-24T02:01:22.619Z,6.53
2023-03-24T02:04:19.521Z,6.00
2023-03-24T02:06:49.345Z,4.93
2023-03-24T02:09:17.752Z,4.53
2023-03-24T02:12:19.321Z,4.70
2023-03-24T02:14:54.983Z,4.47
2023-03-24T02:18:21.693Z,4.68
2023-03-24T02:21:44.250Z,5.85
2023-03-24T02:24:52.089Z,8.15
2023-03-24T02:28:08.127Z,12.07
2023-03-24T02:31:00.533Z,12.60
2023-03-24T02:34:07.914Z,8.93
2023-03-24T02:37:19.501Z,10.98
2023-03-24T02:40:33.025Z,9.80
2023-03-24T02:44:18.974Z,6.25
2023-03-24T02:47:13.810Z,5.20
2023-03-24T02:50:09.994Z,5.07
2023-03-24T02:53:06.362Z,4.85
2023-03-24T02:56:13.192Z,5.32
2023-03-24T02:59:02.705Z,6.10
2023-03-24T03:02:04.855Z,6.60
2023-03-24T03:05:11.167Z,8.05
2023-03-24T03:07:45.422Z,5.78
2023-03-24T03:10:28.964Z,7.45
2023-03-24T03:16:42.233Z,4.43
2023-03-24T03:19:39.428Z,5.03
2023-03-24T03:22:18.588Z,5.07
2023-03-24T03:24:53.961Z,5.63
2023-03-24T03:31:04.264Z,6.82
2023-03-24T03:34:17.866Z,4.43
2023-03-24T03:36:55.353Z,3.95
2023-03-24T03:39:25.834Z,5.00
2023-03-24T03:42:04.057Z,4.95
2023-03-24T03:51:12.420Z,6.15
2023-03-24T03:54:04.369Z,3.92
2023-03-24T03:56:36.208Z,5.70
2023-03-24T03:59:38.653Z,4.88
2023-03-24T04:02:40.645Z,4.35
2023-03-24T04:05:49.832Z,4.85
2023-03-24T04:08:33.353Z,4.90
2023-03-24T04:11:27.367Z,5.57
2023-03-24T04:14:46.356Z,4.60
2023-03-24T04:17:51.336Z,5.20
2023-03-24T04:21:02.922Z,4.05
2023-03-24T04:23:54.047Z,3.63
2023-03-24T04:26:55.404Z,4.90
2023-03-24T04:29:43.201Z,7.90
2023-03-24T04:32:25.003Z,3.70
2023-03-24T04:35:02.020Z,3.75
2023-03-24T04:37:59.693Z,7.25
2023-03-24T04:40:53.501Z,4.53
2023-03-24T04:43:38.583Z,5.07
2023-03-24T04:46:25.544Z,5.00
2023-03-24T04:49:04.232Z,4.57
2023-03-24T04:51:42.652Z,6.15
2023-03-24T05:00:42.615Z,4.50
2023-03-24T05:03:18.656Z,3.78
2023-03-24T05:05:49.958Z,6.57
2023-03-24T05:08:48.294Z,6.47
2023-03-24T05:11:52.368Z,3.40
2023-03-24T05:14:26.282Z,5.68
2023-03-24T05:17:03.690Z,4.45
2023-03-24T05:19:38.805Z,6.70
2023-03-24T05:22:17.663Z,4.20
2023-03-24T05:24:46.039Z,5.32
2023-03-24T05:27:20.856Z,5.20
2023-03-24T05:29:49.666Z,5.88
2023-03-24T05:32:28.800Z,4.13
2023-03-24T05:35:05.780Z,3.17
2023-03-24T05:37:49.236Z,4.53
2023-03-24T05:40:17.911Z,3.95
2023-03-24T05:42:57.335Z,2.78
2023-03-24T05:45:33.305Z,5.25
2023-03-24T05:48:09.650Z,5.93
2023-03-24T05:53:51.669Z,4.55
2023-03-24T05:59:58.310Z,3.75
2023-03-24T06:03:23.782Z,2.88
2023-03-24T06:06:27.789Z,3.75
2023-03-24T06:08:56.203Z,4.25
2023-03-24T06:11:29.372Z,4.68
2023-03-24T06:14:17.599Z,2.97
2023-03-24T06:17:07.251Z,3.35
2023-03-24T06:19:51.673Z,3.10
2023-03-24T06:22:36.729Z,4.30
2023-03-24T06:25:11.878Z,4.80
2023-03-24T06:28:29.605Z,5.10
2023-03-24T06:31:19.000Z,3.10
2023-03-24T06:34:04.651Z,2.75
2023-03-24T06:43:18.647Z,3.55
2023-03-24T06:46:01.902Z,3.70
2023-03-24T06:48:42.375Z,2.75
2023-03-24T06:51:22.491Z,3.33
2023-03-24T06:54:18.521Z,3.45
2023-03-24T06:56:47.528Z,3.60
2023-03-24T06:59:18.128Z,3.47
2023-03-24T07:01:48.332Z,3.05
2023-03-24T07:04:29.752Z,4.28
2023-03-24T07:10:20.499Z,3.20
2023-03-24T07:14:18.621Z,3.65
2023-03-24T07:20:34.677Z,2.60
2023-03-24T07:27:14.698Z,2.97
2023-03-24T07:29:57.636Z,2.85
2023-03-24T07:32:52.443Z,2.80
2023-03-24T07:35:20.740Z,2.90
2023-03-24T07:37:57.950Z,4.00
2023-03-24T07:40:30.764Z,2.20
2023-03-24T07:43:12.731Z,2.80
2023-03-24T07:49:34.385Z,3.03
2023-03-24T07:52:24.580Z,2.10
2023-03-24T07:55:30.236Z,3.58
2023-03-24T07:59:17.104Z,4.43
2023-03-24T08:02:26.105Z,2.55
2023-03-24T08:06:04.628Z,4.18
2023-03-24T08:08:49.860Z,2.83
2023-03-24T08:11:37.899Z,2.42
2023-03-24T08:14:43.551Z,3.83
2023-03-24T08:20:20.149Z,3.25
2023-03-24T08:23:05.792Z,2.63
2023-03-24T08:25:56.696Z,3.47
2023-03-24T08:28:25.176Z,3.05
2023-03-24T08:31:06.481Z,4.18
2023-03-24T08:33:37.733Z,3.38
2023-03-24T08:36:07.028Z,3.38
2023-03-24T08:38:39.299Z,3.70
2023-03-24T08:41:08.986Z,3.65
2023-03-24T08:43:38.090Z,2.85
2023-03-24T08:46:13.799Z,3.80
2023-03-24T08:48:43.801Z,4.78
2023-03-24T08:51:17.156Z,4.40
2023-03-24T08:53:48.995Z,4.10
2023-03-24T08:56:30.858Z,7.25
2023-03-24T08:59:02.441Z,6.22
2023-03-24T09:01:40.246Z,7.22
2023-03-24T09:07:41.053Z,4.97
2023-03-24T09:11:29.719Z,6.75
2023-03-24T09:19:19.746Z,3.60
2023-03-24T09:21:50.442Z,3.20
2023-03-24T09:24:36.606Z,5.32
2023-03-24T09:27:28.055Z,3.55
2023-03-24T09:29:57.417Z,6.13
2023-03-24T09:32:29.025Z,5.68
2023-03-24T09:34:57.663Z,3.55
2023-03-24T09:37:32.112Z,4.43
2023-03-24T09:40:21.345Z,3.60
2023-03-24T09:55:57.427Z,5.13
2023-03-24T10:11:19.147Z,4.88
2023-03-24T10:14:05.301Z,3.33
2023-03-24T10:16:36.583Z,5.00
2023-03-24T10:19:29.907Z,3.65
2023-03-24T10:22:34.610Z,4.82
2023-03-24T10:25:15.853Z,3.20
2023-03-24T10:28:18.678Z,2.20
2023-03-24T10:30:49.500Z,2.10
2023-03-24T10:33:48.992Z,2.85
2023-03-24T10:36:26.420Z,1.42
2023-03-24T10:38:54.850Z,2.50
2023-03-24T10:41:26.473Z,1.58
2023-03-24T10:43:57.246Z,2.15
2023-03-24T10:46:27.825Z,1.98
2023-03-24T10:49:10.360Z,1.98
2023-03-24T10:54:20.185Z,1.80
2023-03-24T10:56:52.953Z,2.55
2023-03-24T10:59:33.251Z,2.65
2023-03-24T11:02:09.908Z,4.07
2023-03-24T11:04:43.611Z,2.40
2023-03-24T11:07:21.722Z,4.07
2023-03-24T11:10:11.296Z,3.42
2023-03-24T11:12:41.442Z,2.00
2023-03-24T11:15:31.256Z,3.72
2023-03-24T11:18:57.063Z,1.92
2023-03-24T11:22:00.418Z,2.42
2023-03-24T11:24:28.650Z,2.40
2023-03-24T11:27:02.432Z,3.28
2023-03-24T11:29:32.438Z,2.50
2023-03-24T11:32:03.805Z,2.70
2023-03-24T11:34:42.489Z,2.35
2023-03-24T11:37:18.520Z,3.70
2023-03-24T11:40:16.805Z,2.13
2023-03-24T11:42:56.283Z,2.70
2023-03-24T11:45:45.098Z,1.50
2023-03-24T11:48:31.743Z,1.67
2023-03-24T11:51:01.236Z,3.35
2023-03-24T11:53:45.880Z,1.85
2023-03-24T11:56:26.840Z,2.78
2023-03-24T11:59:09.692Z,3.38
2023-03-24T12:01:41.284Z,1.77
2023-03-24T12:04:42.845Z,1.17
2023-03-24T12:07:55.032Z,1.42
2023-03-24T12:10:34.319Z,1.80
2023-03-24T12:13:32.717Z,1.23
2023-03-24T12:16:42.433Z,0.75
2023-03-24T12:19:51.907Z,0.95
2023-03-24T12:22:46.895Z,0.95
2023-03-24T12:25:56.810Z,1.05
2023-03-24T12:28:35.869Z,1.48
2023-03-24T12:31:35.121Z,0.93
2023-03-24T12:34:19.255Z,0.68
2023-03-24T12:46:02.916Z,1.73
2023-03-24T12:49:15.725Z,0.80
2023-03-24T12:52:17.292Z,1.23
2023-03-24T12:55:15.328Z,0.77
2023-03-24T12:58:40.091Z,1.77
2023-03-24T13:01:24.316Z,1.17
2023-03-24T13:03:59.973Z,0.82
2023-03-24T13:06:39.330Z,0.82
2023-03-24T13:09:28.436Z,0.30
2023-03-24T13:13:01.237Z,3.00
2023-03-24T13:16:11.160Z,1.27
2023-03-24T13:19:11.395Z,0.50
2023-03-24T13:21:39.635Z,0.40
2023-03-24T13:24:32.737Z,0.60
2023-03-24T13:27:29.099Z,0.28
2023-03-24T13:30:45.393Z,0.32
2023-03-24T13:33:23.999Z,1.45
2023-03-24T13:36:43.492Z,2.53
2023-03-24T13:40:08.711Z,0.85
2023-03-24T13:43:17.118Z,0.43
2023-03-24T13:46:41.757Z,0.30
2023-03-24T13:49:16.691Z,1.05
2023-03-24T13:51:47.390Z,1.10
2023-03-24T13:54:22.979Z,0.80
2023-03-24T13:56:55.554Z,1.13
2023-03-24T13:59:46.739Z,0.50
2023-03-24T14:02:25.088Z,2.33
2023-03-24T14:04:59.461Z,0.93
2023-03-24T14:07:44.781Z,3.97
2023-03-24T14:14:22.600Z,1.60
2023-03-24T14:17:32.650Z,0.77
2023-03-24T14:20:11.563Z,0.30
2023-03-24T14:23:05.438Z,0.88
2023-03-24T14:25:34.758Z,1.92
2023-03-24T14:28:31.073Z,0.68
2023-03-24T14:31:04.299Z,0.28
2023-03-24T14:33:39.639Z,1.02
2023-03-24T14:36:12.524Z,0.52
2023-03-24T14:38:45.031Z,0.40
2023-03-24T14:42:04.631Z,0.73
2023-03-24T14:44:59.827Z,0.40
2023-03-24T14:47:47.968Z,1.10
2023-03-24T14:50:59.281Z,0.80
2023-03-24T14:53:27.314Z,0.50
2023-03-24T14:55:56.905Z,0.47
2023-03-24T14:58:39.719Z,1.30
2023-03-24T15:01:11.415Z,0.20
2023-03-24T15:03:50.405Z,1.42
2023-03-24T15:06:26.009Z,2.00
2023-03-24T15:08:59.236Z,1.88
2023-03-24T15:11:31.384Z,0.65
2023-03-24T15:14:00.950Z,1.30
2023-03-24T15:19:27.140Z,0.45
2023-03-24T15:22:18.287Z,0.50
2023-03-24T15:24:56.041Z,1.02
2023-03-24T15:27:36.347Z,0.60
2023-03-24T15:30:19.778Z,0.50
2023-03-24T15:32:58.104Z,0.47
2023-03-24T15:35:37.318Z,2.65
2023-03-24T15:38:05.199Z,0.38
2023-03-24T15:40:35.683Z,0.43
2023-03-24T15:43:34.599Z,0.30
2023-03-24T15:46:31.548Z,0.85
2023-03-24T15:49:01.089Z,0.85
2023-03-24T15:52:09.901Z,0.60
2023-03-24T15:54:52.044Z,1.27
2023-03-24T15:57:27.151Z,4.25
2023-03-24T16:00:19.033Z,0.68
2023-03-24T16:02:52.752Z,0.68
2023-03-24T16:05:30.895Z,1.08
2023-03-24T16:08:08.465Z,0.85
2023-03-24T16:11:19.068Z,0.70
2023-03-24T16:14:02.383Z,1.13
2023-03-24T16:16:37.380Z,1.20
2023-03-24T16:19:05.087Z,1.65
2023-03-24T16:21:36.399Z,1.08
2023-03-24T16:24:04.313Z,0.50
2023-03-24T16:26:37.743Z,0.60
2023-03-24T16:29:19.873Z,0.85
2023-03-24T16:31:50.651Z,1.23
2023-03-24T16:34:28.564Z,1.23
2023-03-24T16:36:58.154Z,1.65
2023-03-24T16:39:29.402Z,0.70
2023-03-24T16:41:58.065Z,2.40
2023-03-24T16:44:32.960Z,0.85
2023-03-24T16:47:05.092Z,0.75
2023-03-24T16:49:35.596Z,1.10
2023-03-24T16:52:27.574Z,0.90
2023-03-24T17:07:27.208Z,0.80
2023-03-24T17:17:55.477Z,1.20
2023-03-24T17:20:39.589Z,0.65
2023-03-24T17:26:56.732Z,0.75
2023-03-24T17:29:38.520Z,2.17
2023-03-24T17:32:06.989Z,0.82
2023-03-24T17:34:36.270Z,0.85
2023-03-24T17:37:12.086Z,1.25
2023-03-24T17:39:47.636Z,7.85
2023-03-24T17:46:11.126Z,2.50
2023-03-24T17:48:49.263Z,3.17
2023-03-24T17:52:33.622Z,2.28
2023-03-24T17:56:13.701Z,1.65
2023-03-24T17:59:17.193Z,1.50
2023-03-24T18:04:28.479Z,1.40
2023-03-24T18:06:57.125Z,0.98
2023-03-24T18:09:31.121Z,1.98
2023-03-24T18:12:06.544Z,2.15
2023-03-24T18:14:35.082Z,2.13
2023-03-24T18:17:03.579Z,1.40
2023-03-24T18:19:40.367Z,1.70
2023-03-24T18:22:11.669Z,1.42
2023-03-24T18:24:40.819Z,1.02
2023-03-24T18:27:10.822Z,1.08
2023-03-24T18:29:39.675Z,2.60
2023-03-24T18:32:09.438Z,1.83
2023-03-24T18:34:40.440Z,0.57
2023-03-24T18:37:11.561Z,1.55
2023-03-24T18:39:41.005Z,1.33
2023-03-24T18:42:09.449Z,1.67
2023-03-24T18:45:11.008Z,0.93
2023-03-24T18:47:53.830Z,1.48
2023-03-24T18:51:08.962Z,2.38
2023-03-24T18:53:40.534Z,1.00
2023-03-24T18:56:15.335Z,1.27
2023-03-24T18:59:11.331Z,1.73
2023-03-24T19:02:04.300Z,1.40
2023-03-24T19:04:33.885Z,1.48
2023-03-24T19:09:40.082Z,1.58
2023-03-24T19:12:18.243Z,1.13
2023-03-24T19:14:47.945Z,2.38
2023-03-24T19:17:33.754Z,2.95
2023-03-24T19:20:09.552Z,1.48
2023-03-24T19:23:05.802Z,1.63
2023-03-24T19:25:36.020Z,2.20
2023-03-24T19:28:07.514Z,1.38
2023-03-24T19:31:10.899Z,2.38
2023-03-24T19:33:42.787Z,1.85
2023-03-24T19:36:12.419Z,2.45
2023-03-24T19:38:40.673Z,2.65
2023-03-24T19:41:14.323Z,1.58
2023-03-24T19:43:43.346Z,1.25
2023-03-24T19:46:12.718Z,2.38
2023-03-24T19:55:39.719Z,2.05
2023-03-24T20:05:01.757Z,2.10
2023-03-24T20:07:30.228Z,1.98
2023-03-24T20:10:32.755Z,2.53
2023-03-24T20:24:54.816Z,2.25
2023-03-24T20:31:33.113Z,2.35
2023-03-24T20:34:10.168Z,2.47
2023-03-24T20:36:39.387Z,3.90
2023-03-24T20:39:10.727Z,3.50
2023-03-24T20:41:42.672Z,3.53
2023-03-24T20:44:12.024Z,2.22
2023-03-24T20:46:45.823Z,1.95
2023-03-24T20:52:45.635Z,4.55
2023-03-24T20:55:34.337Z,3.90
2023-03-24T20:58:07.044Z,1.75
2023-03-24T21:00:42.451Z,3.05
2023-03-24T21:03:12.479Z,1.90
2023-03-24T21:05:43.845Z,2.85
2023-03-24T21:08:18.000Z,2.13
2023-03-24T21:10:48.924Z,3.00
2023-03-24T21:13:21.779Z,2.25
2023-03-24T21:16:00.143Z,2.50
2023-03-24T21:18:43.087Z,1.88
2023-03-24T21:21:15.765Z,2.13
2023-03-24T21:23:55.557Z,1.33
2023-03-24T21:29:59.856Z,3.60
2023-03-24T21:34:56.975Z,1.92
2023-03-24T21:37:32.350Z,2.35
2023-03-24T21:40:01.124Z,2.22
2023-03-24T21:42:31.183Z,1.17
2023-03-24T21:45:05.599Z,1.50
2023-03-24T21:47:36.866Z,3.05
2023-03-24T21:50:06.603Z,2.67
2023-03-24T21:52:43.580Z,2.40
2023-03-24T21:55:15.001Z,3.33
2023-03-24T21:57:45.240Z,1.73
2023-03-24T22:00:21.080Z,4.25
2023-03-24T22:02:53.092Z,2.53
2023-03-24T22:05:27.245Z,2.53
2023-03-24T22:07:56.469Z,2.50
2023-03-24T22:10:24.597Z,2.75
2023-03-24T22:12:54.237Z,1.85
2023-03-24T22:15:23.110Z,3.58
2023-03-24T22:17:51.512Z,1.77
2023-03-24T22:20:19.609Z,3.63
2023-03-24T22:22:48.322Z,1.70
2023-03-24T22:25:18.693Z,2.55
2023-03-24T22:27:50.737Z,2.50
2023-03-24T22:30:22.017Z,3.22
2023-03-24T22:32:53.050Z,2.15
2023-03-24T22:35:23.953Z,2.72
2023-03-24T22:37:56.704Z,2.42
2023-03-24T22:40:24.945Z,3.55
2023-03-24T22:42:53.210Z,3.40
2023-03-24T22:45:21.979Z,3.55
2023-03-24T22:48:12.312Z,2.08
2023-03-24T22:50:48.529Z,1.73
2023-03-24T22:53:17.522Z,3.05
2023-03-24T22:55:49.018Z,2.13
2023-03-24T22:58:26.443Z,3.15
2023-03-24T23:01:00.841Z,1.87
2023-03-24T23:03:29.071Z,3.17
2023-03-24T23:06:02.273Z,3.78
2023-03-24T23:08:33.006Z,2.92
2023-03-24T23:11:02.160Z,1.85
2023-03-24T23:13:40.326Z,2.40
2023-03-24T23:16:10.278Z,2.85
2023-03-24T23:18:39.653Z,3.30
2023-03-24T23:21:43.313Z,3.22
2023-03-24T23:24:33.674Z,3.80
2023-03-24T23:27:56.360Z,1.95
2023-03-24T23:33:51.521Z,2.65
2023-03-24T23:36:20.816Z,2.30
2023-03-24T23:38:54.142Z,1.38
2023-03-24T23:42:07.839Z,3.83
2023-03-24T23:53:16.735Z,1.83
2023-03-24T23:56:08.655Z,1.83
2023-03-24T23:58:39.185Z,1.73
